Time;durP1;ratioP1;P1;durP2;ratioP2;P2;SDS_P1;SDS_P2;PMS_P1;PMS_P2;Temp;Humidity;BMP_temperature;BMP_pressure;BME280_temperature;BME280_humidity;BME280_pressure;Samples;Min_cycle;Max_cycle;Signal;HPM_P1;HPM_P2
2022/04/16 00:00:11;;;;;;;6.97;3.55;;;;;;;10.18;81.72;97329.31;5003246;23;20662;-67
2022/04/16 00:02:38;;;;;;;8.07;3.58;;;;;;;10.14;82.00;97315.53;4989566;28;20178;-67
2022/04/16 00:05:05;;;;;;;7.28;3.60;;;;;;;10.11;82.57;97330.69;4979058;28;20050;-69
2022/04/16 00:07:31;;;;;;;8.65;3.17;;;;;;;10.05;82.99;97323.91;4974871;28;20130;-67
2022/04/16 00:09:56;;;;;;;7.53;3.97;;;;;;;10.06;83.28;97324.69;4964047;28;20118;-68
2022/04/16 00:12:21;;;;;;;4.60;3.30;;;;;;;10.02;83.23;97319.09;4960036;28;20784;-68
2022/04/16 00:14:47;;;;;;;6.47;3.65;;;;;;;9.97;84.40;97319.34;4963936;28;20042;-68
2022/04/16 00:17:13;;;;;;;5.80;3.13;;;;;;;9.87;84.88;97314.38;4957937;28;20038;-67
2022/04/16 00:19:38;;;;;;;6.18;2.97;;;;;;;9.85;85.62;97311.19;4974393;28;20054;-67
2022/04/16 00:22:07;;;;;;;8.02;3.47;;;;;;;9.80;86.29;97311.44;4967861;28;20153;-68
2022/04/16 00:24:33;;;;;;;7.15;4.38;;;;;;;9.75;86.06;97313.25;4946468;28;20497;-67
2022/04/16 00:26:59;;;;;;;5.35;3.40;;;;;;;9.69;86.94;97322.06;4965138;28;20595;-68
2022/04/16 00:29:25;;;;;;;5.43;3.38;;;;;;;9.67;87.19;97314.22;4957893;28;20131;-67
2022/04/16 00:31:50;;;;;;;5.88;3.63;;;;;;;9.60;88.03;97318.66;4969534;28;20456;-68
2022/04/16 00:34:15;;;;;;;5.70;3.72;;;;;;;9.59;87.97;97311.59;4979899;28;20046;-68
2022/04/16 00:36:42;;;;;;;5.72;3.30;;;;;;;9.54;89.44;97307.97;4993343;28;20054;-68
2022/04/16 00:39:08;;;;;;;5.60;3.42;;;;;;;9.56;88.33;97313.06;4986117;28;20045;-67
2022/04/16 00:41:34;;;;;;;7.93;3.35;;;;;;;9.50;89.28;97309.00;4990811;28;20058;-67
2022/04/16 00:43:59;;;;;;;6.57;3.35;;;;;;;9.44;89.52;97296.72;4977328;28;20108;-67
2022/04/16 00:46:26;;;;;;;7.00;3.80;;;;;;;9.44;90.49;97304.91;5005056;28;20073;-67
2022/04/16 00:48:52;;;;;;;7.53;3.78;;;;;;;9.38;91.10;97307.88;4990023;28;20490;-68
2022/04/16 00:51:17;;;;;;;6.88;4.07;;;;;;;9.35;91.05;97307.78;4985563;28;20093;-68
2022/04/16 00:53:43;;;;;;;7.57;3.88;;;;;;;9.34;91.39;97306.94;4986926;28;20502;-67
2022/04/16 00:56:10;;;;;;;4.80;3.78;;;;;;;9.26;92.04;97307.88;4979839;28;20061;-66
2022/04/16 00:58:39;;;;;;;7.20;4.28;;;;;;;9.25;92.68;97310.97;4984050;28;20038;-65
2022/04/16 01:01:04;;;;;;;5.65;4.05;;;;;;;9.20;92.42;97298.34;4975137;28;20050;-69
2022/04/16 01:03:30;;;;;;;6.45;3.67;;;;;;;9.23;92.76;97297.63;4975120;28;20402;-67
2022/04/16 01:05:55;;;;;;;8.15;4.63;;;;;;;9.19;93.06;97297.50;4984426;28;20100;-67
2022/04/16 01:08:22;;;;;;;7.65;4.28;;;;;;;9.23;92.88;97302.31;4981714;28;20529;-66
2022/04/16 01:10:48;;;;;;;7.45;3.97;;;;;;;9.17;93.84;97294.34;4992331;28;20053;-66
2022/04/16 01:13:14;;;;;;;6.43;4.15;;;;;;;9.23;93.26;97296.84;4980460;28;20042;-66
2022/04/16 01:15:41;;;;;;;6.88;4.20;;;;;;;9.21;94.78;97299.13;4981232;28;20056;-66
2022/04/16 01:18:07;;;;;;;6.68;4.30;;;;;;;9.17;94.70;97308.00;4978175;28;20038;-66
2022/04/16 01:20:35;;;;;;;10.10;5.00;;;;;;;9.16;94.85;97313.81;4982419;28;20081;-66
2022/04/16 01:23:01;;;;;;;7.55;4.25;;;;;;;9.01;96.18;97307.09;4979982;28;20042;-66
2022/04/16 01:25:27;;;;;;;8.82;4.60;;;;;;;8.99;96.42;97310.16;4969594;28;20533;-66
2022/04/16 01:27:53;;;;;;;7.63;4.43;;;;;;;9.05;95.88;97321.66;4964387;28;20145;-66
2022/04/16 01:30:21;;;;;;;6.28;3.78;;;;;;;8.96;96.71;97299.13;4958817;28;20134;-66
2022/04/16 01:32:48;;;;;;;10.65;4.60;;;;;;;9.01;96.96;97315.28;4978805;28;20112;-66
2022/04/16 01:35:15;;;;;;;11.43;5.72;;;;;;;8.92;97.79;97320.84;4973370;28;20666;-68
2022/04/16 01:37:41;;;;;;;7.30;5.00;;;;;;;8.79;98.84;97306.41;4997752;28;20454;-66
2022/04/16 01:40:11;;;;;;;12.20;4.80;;;;;;;8.78;98.48;97321.19;4972018;28;20038;-66
2022/04/16 01:42:37;;;;;;;8.40;5.47;;;;;;;8.74;99.33;97316.75;4975731;28;20079;-66
2022/04/16 01:45:04;;;;;;;7.53;5.03;;;;;;;8.74;99.81;97319.47;4968900;28;20125;-66
2022/04/16 01:47:30;;;;;;;9.30;5.53;;;;;;;8.75;99.35;97326.53;4980803;28;20053;-68
2022/04/16 01:49:56;;;;;;;8.40;5.25;;;;;;;8.72;99.38;97310.84;4979812;28;20038;-67
2022/04/16 01:52:23;;;;;;;12.10;5.45;;;;;;;8.68;99.30;97329.84;4984240;28;20429;-67
2022/04/16 01:54:52;;;;;;;12.48;6.47;;;;;;;8.67;99.38;97309.09;5000793;28;20379;-67
2022/04/16 01:57:18;;;;;;;11.95;5.68;;;;;;;8.63;99.89;97315.59;4981612;28;20045;-67
2022/04/16 01:59:48;;;;;;;7.70;4.82;;;;;;;8.59;100.00;97299.88;4988700;28;20082;-67
2022/04/16 02:02:14;;;;;;;10.65;5.40;;;;;;;8.54;100.00;97313.75;4977951;28;20047;-67
2022/04/16 02:04:40;;;;;;;11.80;6.28;;;;;;;8.48;100.00;97314.31;4986227;28;20041;-68
2022/04/16 02:07:06;;;;;;;11.15;6.25;;;;;;;8.51;100.00;97303.50;5009608;28;20409;-68
2022/04/16 02:09:32;;;;;;;9.07;5.57;;;;;;;8.50;100.00;97307.38;5000428;28;20045;-67
2022/04/16 02:11:57;;;;;;;11.75;5.75;;;;;;;8.38;100.00;97310.84;5001313;28;20133;-67
2022/04/16 02:14:23;;;;;;;11.55;7.53;;;;;;;8.38;100.00;97299.91;4995395;28;20038;-67
2022/04/16 02:16:49;;;;;;;9.80;5.82;;;;;;;8.32;100.00;97317.66;4995382;28;20038;-67
2022/04/16 02:19:17;;;;;;;10.43;6.57;;;;;;;8.35;100.00;97305.25;4975860;28;20121;-67
2022/04/16 02:21:44;;;;;;;10.93;6.88;;;;;;;8.32;100.00;97314.94;4980778;28;20049;-67
2022/04/16 02:24:10;;;;;;;10.10;6.57;;;;;;;8.33;100.00;97324.69;4974565;28;20042;-67
2022/04/16 02:26:37;;;;;;;13.50;6.45;;;;;;;8.31;100.00;97321.50;4980348;28;20053;-67
2022/04/16 02:29:04;;;;;;;12.93;6.30;;;;;;;8.30;100.00;97310.91;4979830;28;20066;-67
2022/04/16 02:31:29;;;;;;;13.43;6.88;;;;;;;8.24;100.00;97321.25;4980069;28;20045;-67
2022/04/16 02:33:58;;;;;;;12.05;6.20;;;;;;;8.27;100.00;97319.81;4981274;28;20039;-66
2022/04/16 02:36:26;;;;;;;14.35;6.72;;;;;;;8.26;100.00;97332.63;4974631;28;20655;-67
2022/04/16 02:38:54;;;;;;;9.63;6.28;;;;;;;8.20;100.00;97321.13;4981266;28;20038;-67
2022/04/16 02:41:20;;;;;;;11.13;6.20;;;;;;;8.14;100.00;97318.94;4975903;28;20049;-67
2022/04/16 02:43:45;;;;;;;12.18;6.97;;;;;;;8.09;100.00;97313.72;4981018;28;20077;-67
2022/04/16 02:48:56;;;;;;;15.00;7.72;;;;;;;8.00;100.00;97308.31;4980165;28;20129;-67
2022/04/16 02:51:21;;;;;;;11.88;6.65;;;;;;;7.98;100.00;97311.38;4973609;28;20042;-66
2022/04/16 02:53:46;;;;;;;10.52;6.50;;;;;;;7.91;100.00;97313.84;4981058;28;20503;-67
2022/04/16 02:56:12;;;;;;;12.68;6.50;;;;;;;7.89;100.00;97305.22;4974366;28;20069;-66
2022/04/16 02:58:37;;;;;;;12.50;6.75;;;;;;;7.88;100.00;97314.50;4983971;28;20050;-66
2022/04/16 03:01:04;;;;;;;11.85;6.38;;;;;;;7.83;100.00;97311.97;4984173;28;20051;-65
2022/04/16 03:03:29;;;;;;;11.57;6.55;;;;;;;7.74;100.00;97301.16;4983916;28;20045;-66
2022/04/16 03:05:55;;;;;;;12.05;6.88;;;;;;;7.72;100.00;97310.81;4981882;28;20046;-67
2022/04/16 03:08:20;;;;;;;9.98;6.07;;;;;;;7.66;100.00;97315.66;4976392;28;20081;-65
2022/04/16 03:10:45;;;;;;;10.55;6.75;;;;;;;7.63;100.00;97308.13;4979821;28;20447;-67
2022/04/16 03:13:11;;;;;;;11.80;6.63;;;;;;;7.59;100.00;97315.38;4989133;28;20038;-65
2022/04/16 03:18:20;;;;;;;12.25;6.28;;;;;;;7.54;100.00;97324.53;4974608;28;20096;-66
2022/04/16 03:20:46;;;;;;;12.23;6.88;;;;;;;7.49;100.00;97319.31;4979894;28;20054;-66
2022/04/16 03:23:11;;;;;;;10.52;7.15;;;;;;;7.46;100.00;97323.47;4974572;28;20053;-65
2022/04/16 03:25:43;;;;;;;11.00;6.75;;;;;;;7.48;100.00;97336.78;4979253;28;20053;-66
2022/04/16 03:28:09;;;;;;;10.73;6.07;;;;;;;7.54;100.00;97340.91;4976200;28;20188;-66
2022/04/16 03:30:35;;;;;;;8.82;6.13;;;;;;;7.44;100.00;97335.84;4979738;28;20053;-66
2022/04/16 03:33:01;;;;;;;9.63;6.43;;;;;;;7.54;100.00;97351.81;4995660;28;20038;-66
2022/04/16 03:35:26;;;;;;;9.82;6.43;;;;;;;7.54;100.00;97343.63;4974057;28;20129;-65
2022/04/16 03:37:52;;;;;;;11.98;6.88;;;;;;;7.56;100.00;97346.84;4980695;28;20118;-66
2022/04/16 03:40:19;;;;;;;11.95;6.20;;;;;;;7.53;100.00;97347.50;4974915;28;20071;-66
2022/04/16 03:42:49;;;;;;;10.00;6.28;;;;;;;7.73;100.00;97345.13;4980041;28;20491;-66
2022/04/16 03:45:32;;;;;;;12.38;6.22;;;;;;;7.56;100.00;97354.22;4984457;28;20046;-66
2022/04/16 03:47:59;;;;;;;10.95;6.30;;;;;;;7.43;100.00;97356.06;4986423;28;20074;-67
2022/04/16 03:50:26;;;;;;;10.13;6.22;;;;;;;7.29;100.00;97356.28;4981908;28;20137;-67
2022/04/16 03:52:53;;;;;;;9.27;5.68;;;;;;;7.30;100.00;97357.09;4982943;28;20088;-67
2022/04/16 04:00:57;;;;;;;11.35;6.15;;;;;;;7.20;100.00;97347.34;4975562;28;20058;-66
2022/04/16 04:03:23;;;;;;;10.38;5.65;;;;;;;7.31;100.00;97361.41;4956100;28;20059;-66
2022/04/16 04:05:49;;;;;;;10.93;5.72;;;;;;;7.29;100.00;97356.28;4974856;28;20133;-66
2022/04/16 04:08:16;;;;;;;12.60;5.88;;;;;;;7.24;100.00;97354.56;4956573;28;20496;-67
2022/04/16 04:10:42;;;;;;;9.98;5.68;;;;;;;7.21;100.00;97359.88;4970533;28;20407;-66
2022/04/16 04:13:08;;;;;;;9.48;5.30;;;;;;;7.13;100.00;97355.25;4988971;28;20038;-67
2022/04/16 04:15:34;;;;;;;10.05;5.47;;;;;;;6.96;100.00;97354.19;4973870;28;20050;-67
2022/04/16 04:18:00;;;;;;;10.57;5.75;;;;;;;7.08;100.00;97357.03;4978260;28;20038;-67
2022/04/16 04:20:27;;;;;;;10.60;5.68;;;;;;;7.03;100.00;97356.44;4977181;28;20395;-66
2022/04/16 04:22:53;;;;;;;8.77;4.82;;;;;;;6.89;100.00;97367.53;4989843;28;20050;-67
2022/04/16 04:25:19;;;;;;;9.05;5.38;;;;;;;6.86;100.00;97369.00;4978935;28;20042;-66
2022/04/16 04:27:44;;;;;;;10.48;5.47;;;;;;;6.83;100.00;97371.56;4982027;28;20516;-66
2022/04/16 04:30:11;;;;;;;10.77;5.72;;;;;;;6.89;100.00;97384.66;4973005;28;20066;-66
2022/04/16 04:32:36;;;;;;;8.65;5.18;;;;;;;6.86;100.00;97376.34;4974542;28;20042;-66
2022/04/16 04:35:06;;;;;;;9.38;5.50;;;;;;;6.80;100.00;97388.53;4975115;28;20050;-66
2022/04/16 04:37:32;;;;;;;8.90;5.07;;;;;;;6.77;100.00;97384.56;4978856;28;20070;-66
2022/04/16 04:39:58;;;;;;;10.43;5.57;;;;;;;6.72;100.00;97387.44;4976707;28;20526;-66
2022/04/16 04:42:28;;;;;;;7.70;5.03;;;;;;;6.67;100.00;97384.91;4975761;28;20596;-66
2022/04/16 04:44:54;;;;;;;8.98;4.72;;;;;;;6.71;100.00;97394.00;4980745;28;20523;-66
2022/04/16 04:47:20;;;;;;;8.68;5.10;;;;;;;6.73;100.00;97388.25;4965518;28;20046;-66
2022/04/16 04:49:45;;;;;;;13.20;5.20;;;;;;;6.81;100.00;97399.13;4990166;28;20104;-66
2022/04/16 04:52:11;;;;;;;9.80;5.15;;;;;;;6.91;99.86;97402.59;4979227;28;20045;-66
2022/04/16 04:54:36;;;;;;;8.35;4.75;;;;;;;6.84;99.42;97401.19;4974259;28;20400;-66
2022/04/16 04:57:05;;;;;;;8.35;5.07;;;;;;;6.89;99.30;97413.81;4961902;28;20547;-66
2022/04/16 04:59:30;;;;;;;7.63;4.78;;;;;;;7.06;97.61;97407.53;4963020;28;20484;-66
2022/04/16 05:01:56;;;;;;;8.60;4.88;;;;;;;7.06;97.04;97413.78;4975953;28;20049;-66
2022/04/16 05:04:21;;;;;;;10.45;4.85;;;;;;;6.97;96.36;97415.72;4968975;28;22103;-67
2022/04/16 05:06:46;;;;;;;7.28;4.60;;;;;;;6.95;97.25;97417.16;4983936;28;20046;-67
2022/04/16 05:09:12;;;;;;;7.88;5.13;;;;;;;7.17;95.37;97418.88;4984682;28;20034;-66
2022/04/16 05:11:37;;;;;;;7.72;4.22;;;;;;;7.27;94.42;97418.47;4976341;28;20047;-67
2022/04/16 05:14:02;;;;;;;8.15;5.07;;;;;;;7.18;94.92;97418.50;4967685;28;20039;-66
2022/04/16 05:16:28;;;;;;;7.80;4.40;;;;;;;7.11;94.06;97412.78;4961340;28;20443;-66
2022/04/16 05:18:53;;;;;;;10.52;4.55;;;;;;;7.32;93.04;97415.59;4973965;28;20104;-66
2022/04/16 05:21:19;;;;;;;10.65;5.30;;;;;;;7.47;91.97;97420.50;4972503;28;20444;-66
2022/04/16 05:23:44;;;;;;;7.68;4.70;;;;;;;7.64;89.85;97424.25;4974735;28;20085;-66
2022/04/16 05:26:10;;;;;;;8.88;4.30;;;;;;;7.84;90.11;97422.69;4975707;28;20045;-66
2022/04/16 05:28:37;;;;;;;6.82;4.20;;;;;;;8.22;87.58;97421.75;4974617;28;20609;-67
2022/04/16 05:31:04;;;;;;;8.93;4.50;;;;;;;9.15;84.33;97429.75;4979454;28;20046;-65
2022/04/16 05:36:13;;;;;;;7.25;4.60;;;;;;;9.30;79.60;97431.78;4962941;28;20185;-65
2022/04/16 05:38:38;;;;;;;8.15;4.57;;;;;;;9.42;79.73;97441.13;4972543;28;20501;-65
2022/04/16 05:41:04;;;;;;;6.55;3.88;;;;;;;9.02;80.24;97447.22;4975345;28;20046;-64
2022/04/16 05:43:29;;;;;;;7.57;4.38;;;;;;;8.46;84.47;97451.13;4989391;28;20129;-66
2022/04/16 05:45:55;;;;;;;11.73;7.03;;;;;;;8.18;84.70;97456.31;4981419;28;20030;-66
2022/04/16 05:48:20;;;;;;;8.90;4.63;;;;;;;8.07;86.82;97447.72;4975722;28;20593;-65
2022/04/16 05:50:46;;;;;;;6.82;4.47;;;;;;;8.47;85.16;97451.94;4982127;28;20101;-66
2022/04/16 05:53:13;;;;;;;9.93;5.63;;;;;;;7.92;88.39;97465.44;4974911;28;20153;-66
2022/04/16 05:55:40;;;;;;;9.27;5.03;;;;;;;8.52;85.61;97455.28;4975424;28;20043;-66
2022/04/16 05:58:06;;;;;;;10.80;5.20;;;;;;;8.94;82.46;97438.78;4968760;28;20127;-66
2022/04/16 06:00:33;;;;;;;7.68;4.97;;;;;;;8.52;83.99;97446.28;4982458;28;20038;-66
2022/04/16 06:02:59;;;;;;;7.88;4.75;;;;;;;8.92;82.09;97446.53;4979545;28;20042;-66
2022/04/16 06:05:24;;;;;;;7.38;4.82;;;;;;;8.82;82.91;97448.88;4991033;28;20048;-66
2022/04/16 06:07:49;;;;;;;13.82;5.47;;;;;;;7.87;87.20;97445.75;4981928;28;20394;-66
2022/04/16 06:10:15;;;;;;;9.77;5.50;;;;;;;8.50;86.79;97449.34;4972709;28;20038;-67
2022/04/16 06:12:41;;;;;;;12.10;6.15;;;;;;;9.90;77.69;97456.78;4978214;28;20042;-66
2022/04/16 06:15:07;;;;;;;8.18;4.70;;;;;;;11.43;69.91;97458.72;4957521;28;20042;-66
2022/04/16 06:17:32;;;;;;;17.35;7.18;;;;;;;12.14;66.50;97452.56;4972132;28;20046;-66
2022/04/16 06:19:58;;;;;;;8.32;5.60;;;;;;;9.57;75.44;97441.25;4981417;28;20050;-67
2022/04/16 06:22:23;;;;;;;10.10;6.43;;;;;;;9.93;74.75;97445.13;4976639;28;20238;-66
2022/04/16 06:24:49;;;;;;;8.80;5.13;;;;;;;10.74;71.64;97449.84;4980277;28;20129;-66
2022/04/16 06:27:14;;;;;;;10.30;6.10;;;;;;;11.04;69.14;97449.47;4967644;28;20043;-66
2022/04/16 06:29:39;;;;;;;9.50;6.43;;;;;;;11.05;71.18;97454.59;4977736;28;20491;-66
2022/04/16 06:32:05;;;;;;;9.32;6.53;;;;;;;10.96;71.58;97444.94;4956770;28;20109;-66
2022/04/16 06:34:31;;;;;;;12.55;6.93;;;;;;;9.86;76.05;97460.53;4961387;28;20043;-66
2022/04/16 06:36:56;;;;;;;11.48;6.70;;;;;;;9.64;80.26;97459.06;4959980;28;20093;-66
2022/04/16 06:39:21;;;;;;;11.10;5.80;;;;;;;10.37;76.20;97463.69;4972121;28;20282;-66
2022/04/16 06:41:47;;;;;;;10.63;7.20;;;;;;;9.56;76.78;97452.53;4975237;28;20054;-66
2022/04/16 06:44:12;;;;;;;11.70;7.25;;;;;;;9.67;76.80;97458.34;4972066;28;20677;-66
2022/04/16 06:46:38;;;;;;;11.82;7.38;;;;;;;9.21;81.38;97452.19;4984675;28;20552;-66
2022/04/16 06:49:03;;;;;;;10.98;6.85;;;;;;;9.50;79.61;97451.97;4980902;28;20066;-66
2022/04/16 06:51:29;;;;;;;9.20;5.68;;;;;;;9.87;78.03;97456.66;4965061;28;20047;-67
2022/04/16 06:53:55;;;;;;;10.50;6.43;;;;;;;9.94;76.17;97460.41;4968330;28;20105;-67
2022/04/16 06:56:21;;;;;;;12.32;6.60;;;;;;;9.41;79.42;97454.03;4975296;28;20050;-66
2022/04/16 06:58:46;;;;;;;10.18;6.18;;;;;;;9.15;81.47;97462.53;4973166;28;20038;-66
2022/04/16 07:01:12;;;;;;;11.20;6.10;;;;;;;10.20;76.05;97466.66;4974503;28;20483;-66
2022/04/16 07:03:37;;;;;;;10.52;5.78;;;;;;;9.81;76.72;97464.28;4981020;28;20049;-66
2022/04/16 07:06:02;;;;;;;9.80;6.57;;;;;;;9.81;77.39;97466.22;4978551;28;20060;-65
2022/04/16 07:08:28;;;;;;;11.30;7.80;;;;;;;10.02;76.58;97461.41;4975605;28;20145;-65
2022/04/16 07:10:53;;;;;;;13.27;6.78;;;;;;;10.87;71.02;97467.03;4976558;28;20506;-65
2022/04/16 07:13:19;;;;;;;12.10;6.43;;;;;;;10.69;74.74;97467.31;4967248;28;20626;-65
2022/04/16 07:15:45;;;;;;;8.43;5.35;;;;;;;10.47;72.52;97467.88;4972367;28;20109;-66
2022/04/16 07:18:10;;;;;;;9.50;6.15;;;;;;;10.96;72.64;97477.84;4977738;28;20038;-65
2022/04/16 07:20:36;;;;;;;10.25;6.10;;;;;;;10.43;73.23;97486.94;4977914;28;20077;-65
2022/04/16 07:23:01;;;;;;;9.77;6.50;;;;;;;9.78;76.46;97486.88;4965620;28;20078;-67
2022/04/16 07:25:26;;;;;;;10.07;6.30;;;;;;;9.92;76.79;97491.97;4961465;28;20392;-66
2022/04/16 07:27:52;;;;;;;9.95;5.75;;;;;;;9.99;76.54;97500.41;4973431;28;20245;-65
2022/04/16 07:30:17;;;;;;;8.32;5.43;;;;;;;10.02;75.94;97497.00;4998371;28;20102;-66
2022/04/16 07:32:43;;;;;;;9.27;6.55;;;;;;;9.18;78.66;97489.16;4977708;28;20048;-65
2022/04/16 07:35:09;;;;;;;9.02;5.78;;;;;;;9.33;80.77;97504.16;4968147;28;20125;-65
2022/04/16 07:37:34;;;;;;;7.95;5.32;;;;;;;9.71;78.76;97505.78;4979264;28;20053;-66
2022/04/16 07:40:00;;;;;;;8.07;5.72;;;;;;;9.32;78.41;97488.88;4978300;28;20129;-66
2022/04/16 07:42:31;;;;;;;8.93;5.93;;;;;;;8.96;79.95;97487.63;4965224;28;20069;-66
2022/04/16 07:44:57;;;;;;;8.95;5.82;;;;;;;9.12;78.36;97485.84;4977304;28;20741;-65
2022/04/16 07:47:22;;;;;;;7.25;4.90;;;;;;;9.40;78.99;97493.44;4965906;28;20248;-66
2022/04/16 07:49:47;;;;;;;9.23;6.03;;;;;;;9.83;77.67;97494.03;4985095;28;20478;-66
2022/04/16 07:52:13;;;;;;;8.85;6.45;;;;;;;9.94;75.58;97489.72;4979922;28;20050;-66
2022/04/16 07:54:38;;;;;;;7.63;5.32;;;;;;;10.93;73.53;97492.22;4984554;28;20128;-66
2022/04/16 07:57:05;;;;;;;8.52;5.65;;;;;;;12.11;67.51;97497.19;4971935;28;20051;-66
2022/04/16 07:59:30;;;;;;;9.65;6.55;;;;;;;11.16;69.68;97493.25;4982414;28;20057;-66
2022/04/16 08:01:56;;;;;;;7.25;5.10;;;;;;;11.48;68.85;97488.59;4995014;28;20058;-66
2022/04/16 08:04:22;;;;;;;8.70;6.18;;;;;;;11.99;67.55;97496.16;4986527;28;21094;-66
2022/04/16 08:06:48;;;;;;;7.65;4.22;;;;;;;12.25;64.59;97500.28;4983197;28;20411;-66
2022/04/16 08:09:14;;;;;;;7.60;3.92;;;;;;;12.81;63.63;97510.09;4975097;28;20631;-66
2022/04/16 08:11:40;;;;;;;5.90;3.63;;;;;;;11.66;66.58;97500.03;4979496;28;20050;-67
2022/04/16 08:14:05;;;;;;;7.40;4.03;;;;;;;12.07;65.62;97515.53;4972577;28;20038;-65
2022/04/16 08:16:31;;;;;;;6.63;3.88;;;;;;;11.32;65.85;97504.25;4964315;28;20503;-66
2022/04/16 08:18:57;;;;;;;7.65;3.72;;;;;;;11.25;68.13;97512.28;4972274;28;20373;-66
2022/04/16 08:21:25;;;;;;;6.13;3.88;;;;;;;11.19;66.66;97506.28;4974880;28;20047;-65
2022/04/16 08:23:56;;;;;;;4.50;3.00;;;;;;;10.89;69.20;97519.53;4983119;28;20043;-66
2022/04/16 08:26:23;;;;;;;5.90;3.97;;;;;;;10.90;68.20;97526.63;4972016;28;20046;-66
2022/04/16 08:28:48;;;;;;;5.57;3.33;;;;;;;11.71;64.84;97522.88;5004835;28;20110;-66
2022/04/16 08:31:14;;;;;;;5.75;3.40;;;;;;;11.66;63.55;97541.19;4989093;28;20070;-65
2022/04/16 08:33:39;;;;;;;6.05;3.40;;;;;;;11.25;67.11;97518.59;4987895;28;20128;-66
2022/04/16 08:36:05;;;;;;;5.32;3.60;;;;;;;10.55;67.31;97523.63;4981753;28;20042;-66
2022/04/16 08:38:30;;;;;;;5.47;3.47;;;;;;;10.67;67.69;97526.34;4981022;28;20099;-66
2022/04/16 08:40:56;;;;;;;5.15;3.20;;;;;;;11.07;66.72;97542.78;4971237;28;20105;-66
2022/04/16 08:43:21;;;;;;;7.07;3.40;;;;;;;11.36;65.58;97540.00;4968677;28;20576;-67
2022/04/16 08:45:50;;;;;;;5.03;2.90;;;;;;;11.32;65.21;97531.69;4975449;28;20108;-66
2022/04/16 08:48:16;;;;;;;8.40;4.05;;;;;;;10.86;65.07;97537.47;4978837;28;20046;-66
2022/04/16 08:50:43;;;;;;;5.40;3.20;;;;;;;11.29;63.34;97538.66;4982586;28;20442;-66
2022/04/16 08:53:08;;;;;;;5.43;2.80;;;;;;;11.43;63.42;97537.44;4971726;28;20070;-65
2022/04/16 08:55:35;;;;;;;5.43;2.40;;;;;;;11.52;63.09;97542.78;4980299;28;20413;-66
2022/04/16 08:58:01;;;;;;;5.60;3.08;;;;;;;11.41;61.27;97542.50;4978571;28;20045;-66
2022/04/16 09:00:27;;;;;;;5.15;3.15;;;;;;;11.20;62.47;97548.19;4969713;28;20050;-66
2022/04/16 09:02:58;;;;;;;4.40;2.80;;;;;;;11.60;60.00;97536.34;4977584;28;20058;-66
2022/04/16 09:05:26;;;;;;;3.67;2.38;;;;;;;10.78;61.35;97540.38;4973485;28;20904;-66
2022/04/16 09:07:55;;;;;;;4.55;2.70;;;;;;;11.23;60.92;97533.78;4983098;28;20078;-66
2022/04/16 09:10:20;;;;;;;3.75;2.10;;;;;;;12.46;59.49;97537.59;4978019;28;20045;-66
2022/04/16 09:12:50;;;;;;;3.95;2.40;;;;;;;11.84;58.17;97538.88;4977559;28;20050;-67
2022/04/16 09:15:16;;;;;;;4.00;2.25;;;;;;;11.99;60.21;97542.00;4971616;28;20066;-67
2022/04/16 09:17:41;;;;;;;4.03;2.58;;;;;;;12.38;60.17;97551.19;4977924;28;20132;-67
2022/04/16 09:20:14;;;;;;;6.05;2.72;;;;;;;12.05;58.00;97535.91;4971602;28;20149;-67
2022/04/16 09:22:41;;;;;;;5.15;3.05;;;;;;;12.23;58.19;97555.56;4982732;28;20050;-67
2022/04/16 09:25:15;;;;;;;4.28;2.55;;;;;;;11.11;59.64;97551.09;4978841;28;20046;-67
2022/04/16 09:27:52;;;;;;;4.75;2.47;;;;;;;11.03;61.48;97547.34;4972998;28;20042;-66
2022/04/16 09:30:25;;;;;;;4.18;2.90;;;;;;;11.24;58.90;97554.59;4969473;28;20552;-66
2022/04/16 09:32:52;;;;;;;5.93;3.03;;;;;;;11.72;57.88;97562.88;4983461;28;20077;-67
2022/04/16 09:35:37;;;;;;;3.70;2.30;;;;;;;13.00;54.18;97551.34;4977063;28;20042;-66
2022/04/16 09:38:06;;;;;;;5.50;2.38;;;;;;;12.55;54.18;97551.94;4978073;28;20372;-66
2022/04/16 09:40:34;;;;;;;4.53;2.70;;;;;;;12.94;53.45;97554.75;4976724;28;20142;-66
2022/04/16 09:43:05;;;;;;;4.35;2.42;;;;;;;12.17;55.17;97548.75;4974933;28;20038;-66
2022/04/16 09:45:31;;;;;;;5.03;3.35;;;;;;;11.44;59.72;97572.75;4974497;28;20054;-65
2022/04/16 09:47:58;;;;;;;5.18;3.20;;;;;;;11.30;60.34;97575.13;4967363;28;20063;-68
2022/04/16 09:50:26;;;;;;;8.10;4.60;;;;;;;10.97;61.60;97569.88;4976893;28;20607;-66
2022/04/16 09:53:02;;;;;;;5.90;3.72;;;;;;;11.71;61.98;97577.78;4981003;28;20136;-65
2022/04/16 09:55:28;;;;;;;3.88;2.63;;;;;;;12.16;57.68;97569.13;4974163;28;20038;-66
2022/04/16 09:58:13;;;;;;;4.85;2.63;;;;;;;12.46;55.67;97570.56;4978944;28;20046;-66
2022/04/16 10:00:38;;;;;;;4.80;2.85;;;;;;;13.28;52.34;97568.78;4961898;28;20051;-65
2022/04/16 10:03:07;;;;;;;3.78;2.67;;;;;;;13.30;54.72;97567.25;4964834;28;20053;-65
2022/04/16 10:05:33;;;;;;;3.90;3.00;;;;;;;12.23;55.03;97576.75;4972267;28;20043;-66
2022/04/16 10:07:59;;;;;;;3.50;2.60;;;;;;;12.88;52.44;97569.94;4969048;28;20049;-66
2022/04/16 10:10:27;;;;;;;5.15;2.17;;;;;;;13.46;50.56;97574.66;4970296;28;20054;-66
2022/04/16 10:13:00;;;;;;;3.75;1.90;;;;;;;14.07;47.17;97567.47;4971598;28;20186;-66
2022/04/16 10:16:03;;;;;;;2.80;1.88;;;;;;;15.40;43.61;97569.34;4956936;28;20051;-67
2022/04/16 10:18:33;;;;;;;6.07;2.40;;;;;;;14.52;48.24;97561.06;4960513;28;20704;-67
2022/04/16 10:21:00;;;;;;;3.45;2.22;;;;;;;13.07;49.39;97577.38;4961623;28;20478;-65
2022/04/16 10:23:32;;;;;;;4.10;2.42;;;;;;;12.61;51.25;97561.50;4965908;28;20130;-64
2022/04/16 10:26:02;;;;;;;5.15;2.67;;;;;;;13.23;51.85;97569.06;4975023;28;20048;-66
2022/04/16 10:28:35;;;;;;;4.57;2.35;;;;;;;13.82;53.27;97558.78;4969909;28;20133;-65
2022/04/16 10:31:01;;;;;;;4.32;2.50;;;;;;;13.90;50.76;97574.25;4979093;28;20070;-66
2022/04/16 10:33:27;;;;;;;5.70;4.00;;;;;;;13.18;52.48;97572.91;4968028;28;20142;-67
2022/04/16 10:35:56;;;;;;;4.32;2.67;;;;;;;12.94;54.80;97565.75;4980751;28;20074;-66
2022/04/16 10:38:36;;;;;;;6.88;3.95;;;;;;;13.84;53.17;97576.53;4976051;28;20493;-64
2022/04/16 10:41:08;;;;;;;4.70;3.33;;;;;;;13.91;51.53;97568.38;4976366;28;20057;-64
2022/04/16 10:43:34;;;;;;;6.15;2.95;;;;;;;13.42;52.14;97577.34;4973744;28;20038;-65
2022/04/16 10:46:04;;;;;;;5.28;2.67;;;;;;;14.14;50.93;97564.84;4980462;28;20133;-67
2022/04/16 10:48:36;;;;;;;4.07;2.28;;;;;;;14.25;49.06;97562.25;4972979;28;20052;-66
2022/04/16 10:51:03;;;;;;;4.97;2.67;;;;;;;14.11;50.38;97574.63;4972856;28;20048;-66
2022/04/16 10:53:32;;;;;;;5.35;3.75;;;;;;;12.82;51.39;97572.97;4993472;28;20050;-66
2022/04/16 10:56:06;;;;;;;4.28;2.30;;;;;;;13.93;49.73;97570.78;4978090;28;20551;-66
2022/04/16 10:58:33;;;;;;;4.38;2.38;;;;;;;15.93;46.28;97577.38;4980667;28;20050;-66
2022/04/16 11:01:07;;;;;;;5.43;3.22;;;;;;;13.97;50.51;97577.13;4976030;28;20412;-67
2022/04/16 11:03:36;;;;;;;7.75;2.70;;;;;;;15.65;47.14;97573.16;4964108;28;20043;-66
2022/04/16 11:06:02;;;;;;;4.43;2.77;;;;;;;13.24;50.37;97568.72;4960892;28;20039;-66
2022/04/16 11:08:29;;;;;;;5.47;3.72;;;;;;;12.63;53.13;97568.22;4971816;28;20520;-66
2022/04/16 11:11:06;;;;;;;5.05;2.92;;;;;;;14.34;51.53;97568.28;4970714;28;20144;-66
2022/04/16 11:13:34;;;;;;;4.85;2.72;;;;;;;12.96;53.52;97571.66;4972176;28;20073;-66
2022/04/16 11:16:00;;;;;;;4.72;3.42;;;;;;;13.58;51.61;97580.00;4980721;28;20372;-66
2022/04/16 11:18:26;;;;;;;4.43;2.60;;;;;;;14.50;49.58;97582.72;4973038;28;20811;-66
2022/04/16 11:20:58;;;;;;;4.50;2.80;;;;;;;14.95;46.39;97584.94;4970871;28;20057;-66
2022/04/16 11:23:25;;;;;;;4.30;2.50;;;;;;;13.16;50.35;97581.53;4961115;28;20049;-66
2022/04/16 11:34:20;;;;;;;6.50;3.88;;;;;;;13.09;53.37;97586.88;4978657;28;20129;-66
2022/04/16 11:36:52;;;;;;;5.32;2.55;;;;;;;13.65;53.55;97576.56;4980135;28;20122;-66
2022/04/16 11:39:32;;;;;;;4.40;2.90;;;;;;;13.32;49.81;97573.22;4977188;28;20050;-66
2022/04/16 11:41:59;;;;;;;3.25;2.50;;;;;;;12.68;50.86;97569.91;4969616;28;20035;-67
2022/04/16 11:44:42;;;;;;;5.75;3.13;;;;;;;13.02;50.45;97584.00;4962883;28;20050;-67
2022/04/16 11:47:12;;;;;;;4.03;2.80;;;;;;;14.03;49.53;97575.69;4966167;28;20042;-66
2022/04/16 11:49:44;;;;;;;3.80;1.92;;;;;;;14.78;45.26;97566.97;4977698;28;20046;-66
2022/04/16 11:52:11;;;;;;;6.38;3.85;;;;;;;13.51;50.57;97563.34;4978573;28;20035;-66
2022/04/16 11:54:37;;;;;;;4.63;3.40;;;;;;;12.28;52.94;97570.97;4978258;28;20178;-66